createdAt,value
2023-05-16T00:00:14.750Z,14.74
2023-05-16T00:03:42.923Z,14.75
2023-05-16T00:07:10.599Z,14.75
2023-05-16T00:10:19.316Z,14.75
2023-05-16T00:13:47.103Z,14.75
2023-05-16T00:17:15.461Z,14.76
2023-05-16T00:20:43.365Z,14.79
2023-05-16T00:24:11.253Z,14.77
2023-05-16T00:27:19.534Z,14.77
2023-05-16T00:30:47.457Z,14.76
2023-05-16T00:34:15.501Z,14.75
2023-05-16T00:37:43.452Z,14.75
2023-05-16T00:41:11.439Z,14.75
2023-05-16T00:44:39.376Z,14.75
2023-05-16T00:48:07.191Z,14.73
2023-05-16T00:51:34.840Z,14.73
2023-05-16T00:55:02.570Z,14.73
2023-05-16T00:57:51.597Z,14.75
2023-05-16T01:01:19.711Z,14.75
2023-05-16T01:04:47.556Z,14.75
2023-05-16T01:08:15.442Z,14.75
2023-05-16T01:11:04.381Z,14.76
2023-05-16T01:14:14.197Z,14.78
2023-05-16T01:17:42.087Z,14.76
2023-05-16T01:21:10.009Z,14.76
2023-05-16T01:24:38.033Z,14.73
2023-05-16T01:28:05.923Z,14.71
2023-05-16T01:31:33.694Z,14.70
2023-05-16T01:35:01.538Z,14.68
2023-05-16T01:38:10.794Z,14.66
2023-05-16T01:41:20.520Z,14.65
2023-05-16T01:44:48.268Z,14.63
2023-05-16T01:47:58.140Z,14.63
2023-05-16T01:51:26.020Z,14.64
2023-05-16T01:54:53.944Z,14.62
2023-05-16T01:58:21.843Z,14.61
2023-05-16T02:01:49.620Z,14.61
2023-05-16T02:05:17.537Z,14.59
2023-05-16T02:08:45.553Z,14.59
2023-05-16T02:11:54.456Z,14.61
2023-05-16T02:15:22.342Z,14.63
2023-05-16T02:18:50.066Z,14.66
2023-05-16T02:22:17.868Z,14.67
2023-05-16T02:25:45.667Z,14.72
2023-05-16T02:29:13.555Z,14.74
2023-05-16T02:32:41.441Z,14.76
2023-05-16T02:36:09.383Z,14.79
2023-05-16T02:39:37.137Z,14.85
2023-05-16T02:43:04.993Z,14.85
2023-05-16T02:46:32.864Z,14.86
2023-05-16T02:50:00.935Z,14.88
2023-05-16T02:53:28.752Z,14.91
2023-05-16T02:56:56.592Z,14.94
2023-05-16T03:00:24.760Z,14.96
2023-05-16T03:03:52.768Z,14.99
2023-05-16T03:07:20.470Z,15.04
2023-05-16T03:10:48.392Z,15.04
2023-05-16T03:14:16.184Z,15.05
2023-05-16T03:17:44.066Z,15.10
2023-05-16T03:21:12.335Z,15.12
2023-05-16T03:24:40.328Z,15.16
2023-05-16T03:28:07.994Z,15.23
2023-05-16T03:31:35.793Z,15.32
2023-05-16T03:34:44.728Z,15.38
2023-05-16T03:38:12.633Z,15.40
2023-05-16T03:41:40.346Z,15.45
2023-05-16T03:44:48.608Z,15.49
2023-05-16T03:48:16.638Z,15.50
2023-05-16T03:51:44.434Z,15.48
2023-05-16T03:55:12.247Z,15.44
2023-05-16T03:58:01.387Z,15.42
2023-05-16T04:01:29.176Z,15.38
2023-05-16T04:04:57.135Z,15.35
2023-05-16T04:08:25.060Z,15.33
2023-05-16T04:11:33.043Z,15.30
2023-05-16T04:15:00.785Z,15.27
2023-05-16T04:18:10.840Z,15.26
2023-05-16T04:21:38.635Z,15.25
2023-05-16T04:25:06.445Z,15.25
2023-05-16T04:28:34.655Z,15.25
2023-05-16T04:32:02.539Z,15.26
2023-05-16T04:35:30.206Z,15.28
2023-05-16T04:38:38.979Z,15.30
2023-05-16T04:42:06.956Z,15.31
2023-05-16T04:45:16.734Z,15.32
2023-05-16T04:48:44.746Z,15.34
2023-05-16T04:52:12.543Z,15.33
2023-05-16T04:55:40.350Z,15.34
2023-05-16T04:58:48.598Z,15.35
2023-05-16T05:01:56.451Z,15.35
2023-05-16T05:05:24.299Z,15.37
2023-05-16T05:08:52.048Z,15.40
2023-05-16T05:12:20.064Z,15.43
2023-05-16T05:15:29.201Z,15.45
2023-05-16T05:18:56.664Z,15.46
2023-05-16T05:22:24.489Z,15.47
2023-05-16T05:25:34.809Z,15.47
2023-05-16T05:29:05.784Z,15.47
2023-05-16T05:32:29.626Z,15.47
2023-05-16T05:35:57.465Z,15.45
2023-05-16T05:39:25.977Z,15.44
2023-05-16T05:42:35.842Z,15.45
2023-05-16T05:46:04.308Z,15.45
2023-05-16T05:49:12.928Z,15.45
2023-05-16T05:52:40.632Z,15.50
2023-05-16T05:55:57.447Z,15.51
2023-05-16T05:59:25.394Z,15.53
2023-05-16T06:02:53.792Z,15.54
2023-05-16T06:06:21.578Z,15.53
2023-05-16T06:09:31.426Z,15.51
2023-05-16T06:12:59.436Z,15.50
2023-05-16T06:16:27.390Z,15.46
2023-05-16T06:19:55.351Z,15.44
2023-05-16T06:23:23.228Z,15.45
2023-05-16T06:26:50.902Z,15.50
2023-05-16T06:30:18.850Z,15.55
2023-05-16T06:33:46.764Z,15.62
2023-05-16T06:37:14.815Z,15.68
2023-05-16T06:40:42.617Z,15.74
2023-05-16T06:44:10.660Z,15.79
2023-05-16T06:47:38.596Z,15.83
2023-05-16T06:50:46.693Z,15.89
2023-05-16T06:54:14.880Z,15.99
2023-05-16T06:57:42.701Z,16.09
2023-05-16T07:00:51.453Z,16.19
2023-05-16T07:04:19.590Z,16.29
2023-05-16T07:07:28.760Z,16.34
2023-05-16T07:10:56.721Z,16.41
2023-05-16T07:14:24.656Z,16.45
2023-05-16T07:17:52.742Z,16.48
2023-05-16T07:21:01.868Z,16.52
2023-05-16T07:24:29.737Z,16.55
2023-05-16T07:27:57.538Z,16.60
2023-05-16T07:31:25.484Z,16.62
2023-05-16T07:34:33.953Z,16.64
2023-05-16T07:38:01.870Z,16.65
2023-05-16T07:41:11.090Z,16.68
2023-05-16T07:44:19.036Z,16.73
2023-05-16T07:47:46.997Z,16.80
2023-05-16T07:51:14.836Z,16.87
2023-05-16T07:54:42.797Z,16.91
2023-05-16T07:58:10.610Z,16.97
2023-05-16T08:01:38.387Z,17.06
2023-05-16T08:04:47.392Z,17.16
2023-05-16T08:08:15.308Z,17.28
2023-05-16T08:11:43.157Z,17.40
2023-05-16T08:15:12.644Z,17.53
2023-05-16T08:18:18.803Z,17.67
2023-05-16T08:21:13.195Z,17.85
2023-05-16T08:24:09.925Z,18.06
2023-05-16T08:27:21.966Z,18.35
2023-05-16T08:30:15.350Z,18.58
2023-05-16T08:33:24.605Z,18.76
2023-05-16T08:36:52.803Z,18.98
2023-05-16T08:40:08.703Z,19.14
2023-05-16T08:42:58.878Z,19.21
2023-05-16T08:46:27.099Z,19.20
2023-05-16T08:49:55.589Z,19.19
2023-05-16T08:53:25.526Z,19.16
2023-05-16T08:56:28.488Z,19.13
2023-05-16T08:59:01.528Z,19.08
2023-05-16T09:02:29.578Z,19.02
2023-05-16T09:05:45.718Z,18.96
2023-05-16T09:08:50.310Z,18.89
2023-05-16T09:12:02.742Z,18.88
2023-05-16T09:14:52.439Z,18.94
2023-05-16T09:18:01.496Z,19.01
2023-05-16T09:21:09.252Z,19.11
2023-05-16T09:23:37.710Z,19.24
2023-05-16T09:26:07.306Z,19.34
2023-05-16T09:28:36.013Z,19.40
2023-05-16T09:31:04.667Z,19.44
2023-05-16T09:33:34.133Z,19.45
2023-05-16T09:36:14.566Z,19.42
2023-05-16T09:38:45.607Z,19.41
2023-05-16T09:41:14.860Z,19.37
2023-05-16T09:43:43.608Z,19.32
2023-05-16T09:46:12.848Z,19.28
2023-05-16T09:48:47.152Z,19.27
2023-05-16T09:51:56.155Z,19.27
2023-05-16T09:54:47.123Z,19.23
2023-05-16T09:57:18.785Z,19.23
2023-05-16T09:59:47.461Z,19.21
2023-05-16T10:02:36.007Z,19.20
2023-05-16T10:05:27.247Z,19.20
2023-05-16T10:08:17.981Z,19.20
2023-05-16T10:11:27.134Z,19.19
2023-05-16T10:14:28.130Z,19.21
2023-05-16T10:17:07.485Z,19.22
2023-05-16T10:19:35.871Z,19.25
2023-05-16T10:22:08.599Z,19.27
2023-05-16T10:25:36.495Z,19.32
2023-05-16T10:28:26.130Z,19.39
2023-05-16T10:31:54.126Z,19.51
2023-05-16T10:34:50.296Z,19.60
2023-05-16T10:37:38.287Z,19.76
2023-05-16T10:40:08.188Z,19.90
2023-05-16T10:42:45.121Z,20.07
2023-05-16T10:45:14.003Z,20.26
2023-05-16T10:47:43.042Z,20.40
2023-05-16T10:50:17.381Z,20.46
2023-05-16T10:52:46.003Z,20.44
2023-05-16T10:55:32.006Z,20.44
2023-05-16T10:58:09.249Z,20.41
2023-05-16T11:00:45.498Z,20.38
2023-05-16T11:03:14.792Z,20.37
2023-05-16T11:05:43.184Z,20.42
2023-05-16T11:08:11.264Z,20.50
2023-05-16T11:10:40.378Z,20.56
2023-05-16T11:13:09.121Z,20.61
2023-05-16T11:15:37.725Z,20.65
2023-05-16T11:18:05.640Z,20.70
2023-05-16T11:20:36.025Z,20.80
2023-05-16T11:23:05.095Z,20.85
2023-05-16T11:25:35.196Z,20.93
2023-05-16T11:28:03.219Z,20.87
2023-05-16T11:30:32.043Z,20.88
2023-05-16T11:33:00.657Z,20.89
2023-05-16T11:35:30.442Z,20.92
2023-05-16T11:37:58.402Z,20.97
2023-05-16T11:40:27.241Z,20.99
2023-05-16T11:42:55.495Z,21.04
2023-05-16T11:45:26.459Z,21.08
2023-05-16T11:47:58.662Z,21.06
2023-05-16T11:50:35.745Z,21.06
2023-05-16T11:53:06.248Z,21.05
2023-05-16T11:55:42.734Z,21.08
2023-05-16T11:58:12.380Z,21.03
2023-05-16T12:00:42.440Z,21.00
2023-05-16T12:03:12.067Z,20.96
2023-05-16T12:05:46.831Z,20.96
2023-05-16T12:08:15.433Z,20.93
2023-05-16T12:11:01.927Z,20.92
2023-05-16T12:13:31.646Z,21.01
2023-05-16T12:16:14.971Z,21.13
2023-05-16T12:18:45.314Z,21.22
2023-05-16T12:21:15.444Z,21.27
2023-05-16T12:23:45.086Z,21.32
2023-05-16T12:26:13.519Z,21.38
2023-05-16T12:28:42.960Z,21.51
2023-05-16T12:31:33.488Z,21.66
2023-05-16T12:34:10.037Z,21.85
2023-05-16T12:36:42.633Z,22.02
2023-05-16T12:39:11.054Z,22.21
2023-05-16T12:41:49.186Z,22.43
2023-05-16T12:44:37.328Z,22.63
2023-05-16T12:47:06.018Z,22.73
2023-05-16T12:49:34.578Z,22.92
2023-05-16T12:52:04.138Z,23.11
2023-05-16T12:54:33.188Z,23.25
2023-05-16T12:57:02.192Z,23.29
2023-05-16T12:59:47.473Z,23.24
2023-05-16T13:02:35.652Z,23.16
2023-05-16T13:05:04.548Z,22.98
2023-05-16T13:07:33.245Z,22.86
2023-05-16T13:10:10.851Z,22.72
2023-05-16T13:12:39.535Z,22.61
2023-05-16T13:15:17.890Z,22.51
2023-05-16T13:17:46.694Z,22.43
2023-05-16T13:20:15.369Z,22.40
2023-05-16T13:22:44.523Z,22.34
2023-05-16T13:25:15.888Z,22.23
2023-05-16T13:27:46.131Z,22.12
2023-05-16T13:30:14.818Z,22.10
2023-05-16T13:32:43.407Z,22.13
2023-05-16T13:35:16.894Z,22.31
2023-05-16T13:37:47.628Z,22.62
2023-05-16T13:40:17.727Z,22.87
2023-05-16T13:42:47.800Z,23.06
2023-05-16T13:45:17.364Z,23.32
2023-05-16T13:47:48.456Z,23.51
2023-05-16T13:50:17.389Z,23.45
2023-05-16T13:52:46.669Z,23.45
2023-05-16T13:55:16.873Z,23.41
2023-05-16T13:57:45.668Z,23.37
2023-05-16T14:00:35.169Z,23.28
2023-05-16T14:03:08.695Z,23.06
2023-05-16T14:05:46.496Z,22.96
2023-05-16T14:08:16.325Z,22.92
2023-05-16T14:10:45.806Z,22.86
2023-05-16T14:13:14.177Z,22.82
2023-05-16T14:15:44.992Z,22.76
2023-05-16T14:18:14.248Z,22.79
2023-05-16T14:21:06.591Z,22.97
2023-05-16T14:24:13.676Z,23.10
2023-05-16T14:26:50.940Z,23.14
2023-05-16T14:29:36.915Z,23.24
2023-05-16T14:32:06.078Z,23.34
2023-05-16T14:34:36.529Z,23.46
2023-05-16T14:37:06.076Z,23.59
2023-05-16T14:39:36.960Z,23.62
2023-05-16T14:42:08.446Z,23.63
2023-05-16T14:44:40.955Z,23.64
2023-05-16T14:47:12.328Z,23.59
2023-05-16T14:49:44.107Z,23.52
2023-05-16T14:52:14.891Z,23.37
2023-05-16T14:54:44.836Z,23.25
2023-05-16T14:57:17.079Z,23.15
2023-05-16T14:59:45.077Z,23.00
2023-05-16T15:02:34.866Z,22.78
2023-05-16T15:05:03.198Z,22.56
2023-05-16T15:07:32.982Z,22.37
2023-05-16T15:10:02.478Z,22.16
2023-05-16T15:12:31.928Z,22.02
2023-05-16T15:15:01.950Z,21.93
2023-05-16T15:17:30.035Z,21.81
2023-05-16T15:19:59.000Z,21.72
2023-05-16T15:22:42.734Z,21.65
2023-05-16T15:25:10.826Z,21.58
2023-05-16T15:27:38.736Z,21.55
2023-05-16T15:30:06.633Z,21.47
2023-05-16T15:32:54.935Z,21.43
2023-05-16T15:35:23.961Z,21.43
2023-05-16T15:37:51.851Z,21.43
2023-05-16T15:40:25.008Z,21.45
2023-05-16T15:42:58.259Z,21.50
2023-05-16T15:45:48.119Z,21.59
2023-05-16T15:48:20.838Z,21.67
2023-05-16T15:50:49.307Z,21.86
2023-05-16T15:53:17.280Z,22.11
2023-05-16T15:55:58.433Z,22.33
2023-05-16T15:58:27.623Z,22.55
2023-05-16T16:01:04.303Z,22.79
2023-05-16T16:03:35.321Z,22.97
2023-05-16T16:06:04.360Z,23.08
2023-05-16T16:08:33.617Z,23.50
2023-05-16T16:11:02.372Z,24.11
2023-05-16T16:13:32.662Z,24.68
2023-05-16T16:16:01.151Z,25.15
2023-05-16T16:18:30.900Z,25.40
2023-05-16T16:21:26.941Z,25.38
2023-05-16T16:23:57.970Z,25.20
2023-05-16T16:26:35.884Z,25.21
2023-05-16T16:29:06.191Z,25.11
2023-05-16T16:31:35.234Z,24.94
2023-05-16T16:34:07.474Z,24.96
2023-05-16T16:36:36.935Z,24.95
2023-05-16T16:39:15.021Z,25.01
2023-05-16T16:41:46.829Z,25.15
2023-05-16T16:44:15.943Z,25.38
2023-05-16T16:46:46.492Z,25.55
2023-05-16T16:49:17.598Z,25.58
2023-05-16T16:51:46.976Z,25.55
2023-05-16T16:54:16.900Z,25.48
2023-05-16T16:56:44.886Z,25.15
2023-05-16T16:59:14.548Z,24.71
2023-05-16T17:01:47.698Z,24.28
2023-05-16T17:04:26.757Z,23.92
2023-05-16T17:06:57.248Z,23.51
2023-05-16T17:09:33.432Z,23.18
2023-05-16T17:12:10.555Z,22.92
2023-05-16T17:14:58.963Z,22.71
2023-05-16T17:17:34.756Z,22.54
2023-05-16T17:20:03.875Z,22.38
2023-05-16T17:22:32.628Z,22.20
2023-05-16T17:25:02.620Z,22.05
2023-05-16T17:27:34.532Z,21.89
2023-05-16T17:30:36.456Z,21.69
2023-05-16T17:33:25.003Z,21.55
2023-05-16T17:36:32.641Z,21.37
2023-05-16T17:39:00.735Z,21.25
2023-05-16T17:41:49.915Z,21.13
2023-05-16T17:44:23.940Z,21.05
2023-05-16T17:47:12.407Z,20.93
2023-05-16T17:50:10.121Z,20.83
2023-05-16T17:52:59.861Z,20.72
2023-05-16T17:55:30.381Z,20.62
2023-05-16T17:57:59.906Z,20.55
2023-05-16T18:00:31.798Z,20.46
2023-05-16T18:03:41.594Z,20.37
2023-05-16T18:06:11.753Z,20.29
2023-05-16T18:08:55.739Z,20.16
2023-05-16T18:11:44.783Z,20.04
2023-05-16T18:14:14.915Z,19.95
2023-05-16T18:17:02.967Z,19.83
2023-05-16T18:19:52.919Z,19.73
2023-05-16T18:22:38.407Z,19.64
2023-05-16T18:25:11.688Z,19.54
2023-05-16T18:28:16.006Z,19.44
2023-05-16T18:30:45.970Z,19.36
2023-05-16T18:33:37.202Z,19.28
2023-05-16T18:36:06.726Z,19.25
2023-05-16T18:38:57.294Z,19.23
2023-05-16T18:41:56.619Z,19.19
2023-05-16T18:44:45.687Z,19.14
2023-05-16T18:47:37.036Z,19.10
2023-05-16T18:50:05.904Z,19.08
2023-05-16T18:52:35.752Z,19.06
2023-05-16T18:55:24.198Z,19.00
2023-05-16T18:58:01.202Z,18.96
2023-05-16T19:00:51.865Z,18.90
2023-05-16T19:03:41.297Z,18.82
2023-05-16T19:06:31.329Z,18.75
2023-05-16T19:09:02.889Z,18.70
2023-05-16T19:11:51.889Z,18.66
2023-05-16T19:14:22.616Z,18.62
2023-05-16T19:17:01.820Z,18.58
2023-05-16T19:19:51.180Z,18.55
2023-05-16T19:22:22.261Z,18.53
2023-05-16T19:24:52.944Z,18.50
2023-05-16T19:27:21.539Z,18.46
2023-05-16T19:29:51.858Z,18.41
2023-05-16T19:32:28.907Z,18.35
2023-05-16T19:35:00.784Z,18.30
2023-05-16T19:38:21.179Z,18.24
2023-05-16T19:41:16.521Z,18.22
2023-05-16T19:44:24.921Z,18.17
2023-05-16T19:46:57.387Z,18.12
2023-05-16T19:52:02.994Z,18.06
2023-05-16T19:54:33.670Z,18.03
2023-05-16T19:57:02.209Z,17.99
2023-05-16T19:59:59.448Z,17.96
2023-05-16T20:02:42.858Z,17.93
2023-05-16T20:05:34.963Z,17.90
2023-05-16T20:08:54.190Z,17.86
2023-05-16T20:11:30.995Z,17.84
2023-05-16T20:14:00.412Z,17.81
2023-05-16T20:16:57.825Z,17.82
2023-05-16T20:19:45.792Z,17.82
2023-05-16T20:22:15.802Z,17.81
2023-05-16T20:25:13.852Z,17.79
2023-05-16T20:27:44.202Z,17.76
2023-05-16T20:30:16.613Z,17.72
2023-05-16T20:32:45.502Z,17.69
2023-05-16T20:35:34.577Z,17.68
2023-05-16T20:38:06.004Z,17.67
2023-05-16T20:40:38.314Z,17.67
2023-05-16T20:43:27.028Z,17.67
2023-05-16T20:46:03.729Z,17.68
2023-05-16T20:48:33.639Z,17.69
2023-05-16T20:51:36.981Z,17.69
2023-05-16T20:54:05.008Z,17.69
2023-05-16T20:57:14.894Z,17.68
2023-05-16T20:59:49.828Z,17.67
2023-05-16T21:02:21.012Z,17.67
2023-05-16T21:04:50.205Z,17.63
2023-05-16T21:07:38.921Z,17.62
2023-05-16T21:10:24.967Z,17.62
2023-05-16T21:13:28.933Z,17.59
2023-05-16T21:16:13.612Z,17.58
2023-05-16T21:19:07.950Z,17.57
2023-05-16T21:21:56.539Z,17.60
2023-05-16T21:24:33.208Z,17.64
2023-05-16T21:27:06.831Z,17.68
2023-05-16T21:29:41.045Z,17.69
2023-05-16T21:32:14.789Z,17.70
2023-05-16T21:35:07.340Z,17.73
2023-05-16T21:37:52.632Z,17.73
2023-05-16T21:40:38.966Z,17.67
2023-05-16T21:43:13.591Z,17.62
2023-05-16T21:46:02.142Z,17.56
2023-05-16T21:48:45.737Z,17.54
2023-05-16T21:51:58.493Z,17.49
2023-05-16T21:54:42.748Z,17.46
2023-05-16T21:57:27.249Z,17.43
2023-05-16T21:59:56.886Z,17.40
2023-05-16T22:02:26.860Z,17.38
2023-05-16T22:04:59.393Z,17.37
2023-05-16T22:07:29.676Z,17.38
2023-05-16T22:10:39.753Z,17.40
2023-05-16T22:13:34.526Z,17.41
2023-05-16T22:16:10.986Z,17.41
2023-05-16T22:18:42.268Z,17.37
2023-05-16T22:21:12.368Z,17.26
2023-05-16T22:23:47.655Z,17.24
2023-05-16T22:26:16.620Z,17.25
2023-05-16T22:28:47.119Z,17.25
2023-05-16T22:31:17.766Z,17.23
2023-05-16T22:34:08.235Z,17.21
2023-05-16T22:36:52.265Z,17.21
2023-05-16T22:39:41.487Z,17.19
2023-05-16T22:42:33.872Z,17.21
2023-05-16T22:45:23.074Z,17.24
2023-05-16T22:47:51.647Z,17.26
2023-05-16T22:50:24.320Z,17.27
2023-05-16T22:52:53.086Z,17.26
2023-05-16T22:55:21.738Z,17.27
2023-05-16T22:58:00.524Z,17.29
2023-05-16T23:00:56.674Z,17.29
2023-05-16T23:03:25.375Z,17.29
2023-05-16T23:05:55.672Z,17.28
2023-05-16T23:08:43.019Z,17.26
2023-05-16T23:11:35.252Z,17.25
2023-05-16T23:14:05.246Z,17.24
2023-05-16T23:16:37.272Z,17.23
2023-05-16T23:19:26.319Z,17.20
2023-05-16T23:22:17.195Z,17.15
2023-05-16T23:25:12.988Z,17.12
2023-05-16T23:27:58.309Z,17.10
2023-05-16T23:30:52.458Z,17.09
2023-05-16T23:33:40.091Z,17.09
2023-05-16T23:36:28.926Z,17.09
2023-05-16T23:39:36.964Z,17.13
2023-05-16T23:42:07.407Z,17.12
2023-05-16T23:44:58.107Z,17.12
2023-05-16T23:47:27.290Z,17.14
2023-05-16T23:50:20.046Z,17.15
2023-05-16T23:53:10.548Z,17.12
2023-05-16T23:55:44.653Z,17.11
2023-05-16T23:58:34.728Z,17.10
